Time;durP1;ratioP1;P1;durP2;ratioP2;P2;SDS_P1;SDS_P2;PMS_P1;PMS_P2;Temp;Humidity;BMP_temperature;BMP_pressure;BME280_temperature;BME280_humidity;BME280_pressure;Samples;Min_cycle;Max_cycle;Signal;HPM_P1;HPM_P2
2023/04/29 00:00:00;;;;;;;2.10;1.33;;;;;;;8.14;60.96;101359.50;4979096;28;20033;-88
2023/04/29 00:02:27;;;;;;;4.63;1.67;;;;;;;8.04;61.45;101347.75;4979046;28;20491;-89
2023/04/29 00:04:53;;;;;;;1.48;1.20;;;;;;;7.99;61.66;101344.47;5011423;28;20472;-90
2023/04/29 00:07:18;;;;;;;3.90;1.80;;;;;;;7.93;62.02;101352.34;4978675;28;20057;-88
2023/04/29 00:09:44;;;;;;;2.47;1.40;;;;;;;7.98;61.97;101348.78;4994840;28;20022;-89
2023/04/29 00:12:10;;;;;;;2.05;1.40;;;;;;;7.97;61.75;101330.78;5011433;28;20088;-90
2023/04/29 00:14:35;;;;;;;2.42;1.60;;;;;;;8.05;61.36;101339.13;4994947;28;20044;-88
2023/04/29 00:17:01;;;;;;;1.75;1.10;;;;;;;8.07;61.72;101342.53;5011042;28;20034;-90
2023/04/29 00:19:27;;;;;;;2.67;1.40;;;;;;;7.95;61.31;101322.22;5011190;28;20030;-88
2023/04/29 00:21:53;;;;;;;1.75;1.17;;;;;;;8.06;60.88;101330.50;4995025;28;20026;-88
2023/04/29 00:24:19;;;;;;;1.42;1.15;;;;;;;8.15;60.73;101345.72;4994496;28;20474;-89
2023/04/29 00:26:44;;;;;;;2.17;1.38;;;;;;;8.02;60.93;101331.50;4994758;28;20483;-87
2023/04/29 00:29:10;;;;;;;1.60;1.25;;;;;;;7.91;60.85;101336.94;5011095;28;20487;-90
2023/04/29 00:31:36;;;;;;;2.35;1.58;;;;;;;7.92;60.97;101332.63;4994678;28;20033;-89
2023/04/29 00:34:01;;;;;;;3.78;1.70;;;;;;;7.98;60.80;101340.22;4994648;28;20050;-88
2023/04/29 00:36:27;;;;;;;2.22;1.63;;;;;;;7.80;60.75;101330.38;4994607;28;20033;-88
2023/04/29 00:38:53;;;;;;;2.70;1.42;;;;;;;7.81;61.02;101325.19;5010714;28;20022;-89
2023/04/29 00:41:18;;;;;;;2.22;1.35;;;;;;;7.81;61.17;101326.91;4978324;28;20037;-88
2023/04/29 00:43:44;;;;;;;1.45;1.08;;;;;;;7.66;61.93;101307.53;4994456;28;20030;-88
2023/04/29 00:46:09;;;;;;;2.20;1.23;;;;;;;7.69;62.12;101321.22;4977795;28;20038;-90
2023/04/29 00:48:35;;;;;;;5.93;1.67;;;;;;;7.82;61.51;101316.56;4978202;28;20032;-90
2023/04/29 00:51:01;;;;;;;4.30;1.58;;;;;;;7.75;61.70;101315.03;4994471;28;20029;-89
2023/04/29 00:53:26;;;;;;;2.10;1.38;;;;;;;7.72;62.41;101309.97;5010422;28;20029;-87
2023/04/29 00:55:52;;;;;;;1.50;1.30;;;;;;;7.74;61.85;101313.34;4994110;28;20034;-91
2023/04/29 00:58:18;;;;;;;7.47;1.42;;;;;;;7.73;61.97;101312.50;4994363;28;20034;-89
2023/04/29 01:00:45;;;;;;;1.08;0.98;;;;;;;7.73;62.28;101329.69;4994814;28;20037;-88
2023/04/29 01:03:11;;;;;;;1.50;1.40;;;;;;;7.64;61.83;101305.00;4994424;28;20089;-89
2023/04/29 01:05:37;;;;;;;2.08;1.08;;;;;;;7.76;61.04;101322.72;4994550;28;20036;-88
2023/04/29 01:08:05;;;;;;;7.38;1.42;;;;;;;7.83;61.55;101327.72;4993955;28;20026;-88
2023/04/29 01:10:43;;;;;;;8.55;1.15;;;;;;;7.72;61.63;101315.97;5011586;28;20026;-90
2023/04/29 01:13:36;;;;;;;2.58;1.42;;;;;;;7.81;61.58;101319.19;4995683;28;20030;-90
2023/04/29 01:16:03;;;;;;;2.83;1.70;;;;;;;7.72;61.46;101313.38;5010581;28;20026;-88
2023/04/29 01:18:48;;;;;;;1.58;1.15;;;;;;;7.79;61.10;101298.63;5010441;28;20030;-88
2023/04/29 01:21:14;;;;;;;3.05;1.73;;;;;;;7.75;61.53;101313.31;4996295;28;20026;-89
2023/04/29 01:23:40;;;;;;;1.85;1.20;;;;;;;7.82;61.59;101320.88;5010483;28;20045;-88
2023/04/29 01:26:07;;;;;;;2.38;1.75;;;;;;;7.86;61.61;101335.34;4994072;28;20092;-88
2023/04/29 01:28:37;;;;;;;3.20;2.00;;;;;;;7.92;62.11;101335.22;4993707;28;20076;-87
2023/04/29 01:31:10;;;;;;;2.80;2.30;;;;;;;7.94;61.53;101326.53;5010334;28;20026;-89
2023/04/29 01:33:53;;;;;;;3.38;2.13;;;;;;;7.94;61.22;101320.53;4992428;28;20129;-88
2023/04/29 01:36:30;;;;;;;5.65;3.13;;;;;;;7.91;61.81;101316.31;5010411;28;20511;-88
2023/04/29 01:39:08;;;;;;;3.22;2.38;;;;;;;7.49;61.85;101277.09;5011456;28;20117;-89
2023/04/29 01:41:35;;;;;;;1.73;1.23;;;;;;;7.72;61.06;101331.41;5011318;28;20024;-90
2023/04/29 01:44:01;;;;;;;1.65;1.30;;;;;;;7.39;61.00;101270.50;5010261;28;20108;-88
2023/04/29 01:46:26;;;;;;;1.88;1.50;;;;;;;7.51;61.92;101288.19;4993784;28;20034;-89
2023/04/29 01:48:55;;;;;;;4.93;1.63;;;;;;;7.75;61.56;101328.75;4993752;28;20501;-88
2023/04/29 01:51:20;;;;;;;2.70;1.60;;;;;;;7.72;61.77;101330.56;4993818;28;20030;-89
2023/04/29 01:53:46;;;;;;;2.60;1.80;;;;;;;7.81;61.56;101337.22;4977568;28;20036;-89
2023/04/29 01:56:11;;;;;;;1.95;1.25;;;;;;;7.75;61.67;101345.94;4993687;28;20026;-88
2023/04/29 01:58:37;;;;;;;3.28;1.27;;;;;;;7.62;62.10;101339.41;5010160;28;20475;-88
2023/04/29 02:01:02;;;;;;;2.10;1.25;;;;;;;7.76;62.17;101351.03;4993539;28;20419;-88
2023/04/29 02:03:28;;;;;;;2.10;1.58;;;;;;;7.69;62.10;101338.38;4993506;28;20021;-87
2023/04/29 02:05:53;;;;;;;2.72;1.77;;;;;;;7.80;61.77;101346.69;4977280;28;20468;-88
2023/04/29 02:08:19;;;;;;;2.40;1.45;;;;;;;7.81;61.55;101345.78;4979253;28;20029;-88
2023/04/29 02:10:58;;;;;;;2.08;1.38;;;;;;;7.77;61.25;101336.47;4997050;28;20026;-88
2023/04/29 02:13:23;;;;;;;3.55;1.48;;;;;;;7.78;61.11;101330.44;4997320;28;20101;-89
2023/04/29 02:15:49;;;;;;;2.67;1.73;;;;;;;7.85;61.11;101333.66;4997168;28;20114;-89
2023/04/29 02:18:14;;;;;;;1.77;1.25;;;;;;;7.75;61.75;101323.59;4996956;28;20038;-88
2023/04/29 02:20:40;;;;;;;4.43;2.00;;;;;;;7.69;61.96;101321.22;4997025;28;20487;-88
2023/04/29 02:23:06;;;;;;;3.20;2.05;;;;;;;7.68;62.29;101328.97;4997387;28;20065;-88
2023/04/29 02:25:31;;;;;;;3.13;1.80;;;;;;;7.58;62.77;101328.38;5013338;28;20495;-88
2023/04/29 02:27:56;;;;;;;2.70;1.83;;;;;;;7.63;62.50;101326.50;4996985;28;20029;-88
2023/04/29 02:30:22;;;;;;;2.03;1.30;;;;;;;7.48;62.29;101317.44;4996868;28;20025;-91
2023/04/29 02:32:47;;;;;;;1.55;1.45;;;;;;;7.42;62.87;101316.75;5013006;28;20061;-89
2023/04/29 02:35:13;;;;;;;4.40;1.75;;;;;;;7.51;62.69;101341.41;4996482;28;20037;-90
2023/04/29 02:37:38;;;;;;;2.47;1.63;;;;;;;7.47;63.47;101353.50;4980924;28;20044;-88
2023/04/29 02:40:06;;;;;;;2.97;1.50;;;;;;;7.47;62.12;101366.38;4996913;28;20030;-88
2023/04/29 02:42:31;;;;;;;3.97;1.88;;;;;;;7.56;62.61;101376.47;5013012;28;20481;-89
2023/04/29 02:44:57;;;;;;;2.47;2.15;;;;;;;7.52;62.82;101384.31;4996487;28;20033;-88
2023/04/29 02:47:22;;;;;;;1.13;1.00;;;;;;;7.50;62.32;101397.22;5012923;28;20037;-88
2023/04/29 02:49:48;;;;;;;4.50;1.70;;;;;;;7.38;62.40;101379.50;4980176;28;20026;-89
2023/04/29 02:52:13;;;;;;;4.18;1.95;;;;;;;7.22;63.07;101365.28;4996500;28;20573;-88
2023/04/29 02:54:39;;;;;;;3.70;1.77;;;;;;;7.17;63.20;101357.66;5013942;28;20484;-89
2023/04/29 02:57:04;;;;;;;2.50;1.63;;;;;;;7.22;63.20;101357.56;4980265;28;20483;-89
2023/04/29 02:59:30;;;;;;;2.42;1.50;;;;;;;7.13;63.25;101336.31;4996303;28;20502;-87
2023/04/29 03:01:55;;;;;;;3.05;1.98;;;;;;;7.35;63.02;101362.38;4996116;28;20407;-90
2023/04/29 03:04:21;;;;;;;2.50;1.65;;;;;;;7.31;63.12;101367.66;4979829;28;20033;-89
2023/04/29 03:06:47;;;;;;;2.72;1.30;;;;;;;7.40;62.88;101360.56;4996044;28;20042;-89
2023/04/29 03:09:13;;;;;;;6.97;1.48;;;;;;;7.33;62.82;101342.72;4979949;28;20036;-87
2023/04/29 03:11:38;;;;;;;1.77;1.25;;;;;;;7.59;62.47;101360.94;5012344;28;20057;-87
2023/04/29 03:14:04;;;;;;;2.30;1.92;;;;;;;7.64;61.76;101359.09;4979784;28;20041;-88
2023/04/29 03:16:30;;;;;;;2.45;1.55;;;;;;;7.67;61.71;101359.03;4995812;28;20039;-88
2023/04/29 03:18:56;;;;;;;2.80;1.42;;;;;;;7.64;62.27;101363.41;4978750;28;20083;-89
2023/04/29 03:21:22;;;;;;;3.78;2.08;;;;;;;7.70;62.27;101374.41;4996054;28;20038;-89
2023/04/29 03:23:48;;;;;;;4.03;1.73;;;;;;;7.75;62.14;101372.53;4995623;28;20072;-89
2023/04/29 03:26:13;;;;;;;3.17;1.60;;;;;;;7.72;62.11;101372.63;4996010;28;20026;-89
2023/04/29 03:28:39;;;;;;;2.85;1.65;;;;;;;7.78;62.06;101386.25;4995884;28;20029;-88
2023/04/29 03:31:04;;;;;;;4.95;1.65;;;;;;;7.80;62.34;101389.63;5011743;28;20029;-89
2023/04/29 03:33:30;;;;;;;1.98;1.40;;;;;;;7.81;61.64;101384.44;4979360;28;20061;-90
2023/04/29 03:35:55;;;;;;;2.85;1.55;;;;;;;7.79;61.33;101372.47;5011765;28;20084;-88
2023/04/29 03:38:21;;;;;;;2.38;1.65;;;;;;;7.61;61.61;101354.03;4995566;28;20033;-89
2023/04/29 03:40:46;;;;;;;3.67;2.05;;;;;;;7.92;60.99;101390.16;5012043;28;20030;-89
2023/04/29 03:43:12;;;;;;;4.47;2.33;;;;;;;7.85;60.94;101385.19;4995614;28;20499;-89
2023/04/29 03:45:38;;;;;;;3.10;2.10;;;;;;;7.93;61.24;101383.28;4979079;28;20030;-88
2023/04/29 03:48:04;;;;;;;2.47;2.00;;;;;;;8.01;61.41;101389.91;4995143;28;20109;-89
2023/04/29 03:50:29;;;;;;;2.72;1.75;;;;;;;7.99;62.22;101383.13;4979263;28;20034;-88
2023/04/29 03:52:56;;;;;;;2.28;1.88;;;;;;;8.10;62.67;101385.41;4979058;28;20120;-90
2023/04/29 03:55:22;;;;;;;3.80;1.95;;;;;;;8.15;63.01;101386.13;5011597;28;20156;-88
2023/04/29 03:57:47;;;;;;;4.10;2.72;;;;;;;8.23;63.41;101385.03;4995176;28;20030;-90
2023/04/29 04:00:13;;;;;;;3.17;2.80;;;;;;;8.31;63.30;101390.81;4995089;28;20034;-88
2023/04/29 04:02:38;;;;;;;2.85;1.95;;;;;;;8.45;63.24;101394.78;4978815;28;20034;-89
2023/04/29 04:05:04;;;;;;;5.88;2.85;;;;;;;8.52;63.04;101398.88;4995274;28;20100;-89
2023/04/29 04:07:29;;;;;;;6.07;2.50;;;;;;;8.62;63.53;101402.91;5011364;28;20112;-88
2023/04/29 04:09:55;;;;;;;5.07;3.42;;;;;;;8.73;63.21;101400.00;5011312;28;20022;-87
2023/04/29 04:12:21;;;;;;;4.13;2.95;;;;;;;8.73;62.71;101393.13;4994995;28;20484;-88
2023/04/29 04:14:46;;;;;;;2.97;2.38;;;;;;;8.87;62.60;101421.97;4994524;28;20044;-90
2023/04/29 04:17:11;;;;;;;4.95;2.92;;;;;;;8.88;63.19;101421.06;4994856;28;20037;-88
2023/04/29 04:19:37;;;;;;;5.20;3.15;;;;;;;8.89;63.27;101417.59;4994821;28;20037;-88
2023/04/29 04:22:03;;;;;;;5.47;3.00;;;;;;;8.93;63.39;101417.50;5011171;28;20030;-88
2023/04/29 04:24:29;;;;;;;3.60;2.72;;;;;;;8.95;62.49;101405.38;4995088;28;20083;-89
2023/04/29 04:26:54;;;;;;;3.90;2.72;;;;;;;8.90;62.66;101395.22;4978159;28;20026;-88
2023/04/29 04:29:20;;;;;;;5.28;3.40;;;;;;;8.94;62.20;101401.09;4977685;28;20438;-90
2023/04/29 04:31:45;;;;;;;5.95;2.97;;;;;;;9.03;62.08;101408.56;4994133;28;20482;-88
2023/04/29 04:34:11;;;;;;;3.42;3.00;;;;;;;9.13;62.55;101410.00;4994480;28;20046;-89
2023/04/29 04:36:36;;;;;;;6.93;3.53;;;;;;;9.18;61.79;101413.28;4994638;28;20033;-88
2023/04/29 04:39:02;;;;;;;6.07;3.72;;;;;;;9.23;61.23;101400.22;4994580;28;20510;-89
2023/04/29 04:41:30;;;;;;;5.13;3.50;;;;;;;9.20;61.40;101388.28;4994276;28;20050;-89
2023/04/29 04:43:56;;;;;;;4.25;2.88;;;;;;;9.38;60.77;101405.78;4994521;28;20026;-90
2023/04/29 04:46:21;;;;;;;3.38;2.53;;;;;;;9.42;60.24;101391.84;5010655;28;20030;-89
2023/04/29 04:48:47;;;;;;;4.82;3.17;;;;;;;9.15;60.76;101372.09;5010385;28;20037;-88
2023/04/29 04:51:13;;;;;;;8.75;3.75;;;;;;;9.48;60.57;101409.75;4994418;28;20484;-89
2023/04/29 04:53:38;;;;;;;12.02;3.47;;;;;;;9.41;60.07;101373.84;5010681;28;20034;-88
2023/04/29 04:56:04;;;;;;;5.75;3.17;;;;;;;9.52;60.03;101401.91;4978064;28;20117;-88
2023/04/29 04:58:32;;;;;;;6.70;2.88;;;;;;;9.50;60.32;101394.19;4994165;28;20033;-90
2023/04/29 05:00:58;;;;;;;4.88;3.28;;;;;;;9.63;60.84;101420.47;5010627;28;20065;-88
2023/04/29 05:03:24;;;;;;;3.60;2.55;;;;;;;9.74;61.02;101418.41;4994190;28;20058;-90
2023/04/29 05:05:56;;;;;;;3.75;3.10;;;;;;;9.73;60.97;101422.75;4978077;28;20515;-89
2023/04/29 05:08:21;;;;;;;4.53;2.38;;;;;;;9.57;61.25;101420.69;4994344;28;20022;-89
2023/04/29 05:10:47;;;;;;;3.40;2.38;;;;;;;9.59;61.28;101424.91;4996527;28;20045;-88
2023/04/29 05:13:12;;;;;;;3.47;2.85;;;;;;;9.65;61.60;101423.88;4993839;28;20057;-90
2023/04/29 05:15:38;;;;;;;4.00;2.53;;;;;;;9.63;61.26;101410.97;5010460;28;20474;-89
2023/04/29 05:18:03;;;;;;;3.45;2.30;;;;;;;9.75;61.16;101426.09;4977796;28;20034;-88
2023/04/29 05:20:29;;;;;;;3.30;2.75;;;;;;;9.82;61.38;101421.56;4994337;28;20038;-91
2023/04/29 05:22:54;;;;;;;3.40;2.58;;;;;;;9.76;61.65;101414.03;4994157;28;20045;-88
2023/04/29 05:25:19;;;;;;;4.32;3.03;;;;;;;9.52;61.14;101368.31;5009990;28;20029;-88
2023/04/29 05:27:45;;;;;;;6.97;3.20;;;;;;;9.89;61.12;101412.72;5010142;28;20034;-90
2023/04/29 05:30:11;;;;;;;5.15;3.40;;;;;;;9.64;61.74;101397.19;4994015;28;20030;-90
2023/04/29 05:32:36;;;;;;;7.47;3.83;;;;;;;9.54;62.63;101406.16;5009902;28;20088;-91
2023/04/29 05:35:03;;;;;;;4.38;2.60;;;;;;;9.60;62.10;101412.84;5010426;28;20038;-90
2023/04/29 05:37:30;;;;;;;5.03;2.97;;;;;;;9.68;62.47;101418.59;4993759;28;20042;-88
2023/04/29 05:39:56;;;;;;;4.65;3.08;;;;;;;9.72;62.53;101409.84;4978407;28;20070;-88
2023/04/29 05:42:22;;;;;;;4.78;2.92;;;;;;;9.90;62.17;101429.06;5011623;28;20053;-90
2023/04/29 05:44:48;;;;;;;3.78;3.05;;;;;;;9.97;62.03;101420.22;5013903;28;20045;-89
2023/04/29 05:47:14;;;;;;;6.00;3.80;;;;;;;9.96;61.40;101439.22;4981336;28;20488;-90
2023/04/29 05:49:39;;;;;;;3.00;2.33;;;;;;;10.01;61.93;101432.97;4997819;28;20109;-88
2023/04/29 05:52:05;;;;;;;5.15;2.92;;;;;;;10.09;61.65;101434.47;4997645;28;20041;-88
2023/04/29 05:54:32;;;;;;;4.03;3.40;;;;;;;10.11;61.27;101433.50;4997326;28;20038;-89
2023/04/29 05:56:58;;;;;;;4.72;2.97;;;;;;;10.28;60.89;101440.72;4997324;28;20514;-89
2023/04/29 05:59:24;;;;;;;6.85;2.92;;;;;;;10.28;60.50;101432.97;4997553;28;20033;-89
2023/04/29 06:01:49;;;;;;;4.32;3.17;;;;;;;10.18;60.66;101431.56;5013677;28;20236;-89
2023/04/29 06:04:15;;;;;;;6.28;3.55;;;;;;;10.21;60.68;101419.38;4997374;28;20034;-89
2023/04/29 06:06:41;;;;;;;3.50;2.75;;;;;;;9.96;60.63;101385.78;5013313;28;20030;-88
2023/04/29 06:09:06;;;;;;;5.78;3.30;;;;;;;10.16;60.80;101420.44;5013580;28;20034;-89
2023/04/29 06:11:32;;;;;;;4.05;2.95;;;;;;;10.18;60.35;101413.47;4997093;28;20419;-90
2023/04/29 06:13:58;;;;;;;5.38;2.88;;;;;;;10.19;59.82;101412.56;4981010;28;20480;-89
2023/04/29 06:16:23;;;;;;;4.93;2.42;;;;;;;10.15;60.37;101408.41;4997163;28;20041;-90
2023/04/29 06:18:49;;;;;;;4.13;2.75;;;;;;;10.30;60.33;101419.09;5013216;28;20041;-89
2023/04/29 06:21:15;;;;;;;3.58;2.72;;;;;;;10.32;60.51;101411.25;5013525;28;20022;-90
2023/04/29 06:23:40;;;;;;;4.20;2.92;;;;;;;10.27;60.63;101410.59;4997423;28;20033;-90
2023/04/29 06:26:06;;;;;;;11.38;3.22;;;;;;;10.19;61.26;101418.59;5013093;28;20022;-87
2023/04/29 06:28:31;;;;;;;3.97;2.83;;;;;;;10.23;61.57;101416.78;4980734;28;20026;-89
2023/04/29 06:30:57;;;;;;;4.93;3.47;;;;;;;10.17;61.39;101410.03;5013289;28;20471;-92
2023/04/29 06:33:22;;;;;;;6.40;3.30;;;;;;;10.28;61.13;101407.97;4980443;28;20072;-89
2023/04/29 06:35:48;;;;;;;4.75;3.08;;;;;;;10.27;61.53;101400.25;4996893;28;20036;-89
2023/04/29 06:38:13;;;;;;;4.40;2.97;;;;;;;10.45;61.08;101401.34;4996740;28;20026;-89
2023/04/29 06:40:39;;;;;;;8.13;3.22;;;;;;;10.41;61.09;101398.00;5012734;28;20388;-89
2023/04/29 06:43:04;;;;;;;3.40;2.42;;;;;;;10.59;61.23;101415.47;5013059;28;20077;-89
2023/04/29 06:45:30;;;;;;;5.50;3.65;;;;;;;10.64;61.58;101420.47;4980499;28;20466;-91
2023/04/29 06:47:56;;;;;;;6.57;3.25;;;;;;;10.59;60.70;101407.69;4996789;28;20576;-88
2023/04/29 06:50:21;;;;;;;3.92;2.78;;;;;;;10.45;61.24;101370.31;5012947;28;20737;-88
2023/04/29 06:52:48;;;;;;;4.78;3.45;;;;;;;10.70;60.96;101396.09;4996411;28;20033;-88
2023/04/29 06:55:13;;;;;;;4.47;3.60;;;;;;;10.82;60.79;101416.38;4979898;28;20065;-88
2023/04/29 06:57:38;;;;;;;4.68;3.13;;;;;;;10.98;60.36;101433.00;5012812;28;20062;-89
2023/04/29 07:00:05;;;;;;;4.43;3.40;;;;;;;10.83;60.90;101431.00;4980096;28;20080;-89
2023/04/29 07:02:30;;;;;;;3.92;2.65;;;;;;;10.84;61.53;101430.09;4996201;28;20030;-89
2023/04/29 07:04:56;;;;;;;5.65;3.45;;;;;;;10.93;60.79;101423.75;4980037;28;20388;-89
2023/04/29 07:07:21;;;;;;;3.88;2.97;;;;;;;11.01;60.80;101417.38;4996268;28;20037;-89
2023/04/29 07:09:50;;;;;;;5.80;4.00;;;;;;;11.03;60.39;101425.91;4979678;28;20022;-89
2023/04/29 07:12:16;;;;;;;5.57;3.58;;;;;;;11.13;60.59;101429.84;4996736;28;20059;-89
2023/04/29 07:14:41;;;;;;;3.50;2.50;;;;;;;11.23;60.06;101429.50;5012405;28;20026;-88
2023/04/29 07:17:07;;;;;;;5.35;3.38;;;;;;;11.28;60.06;101445.69;5012555;28;20030;-88
2023/04/29 07:19:32;;;;;;;4.47;3.35;;;;;;;11.26;59.95;101434.53;4996066;28;20054;-89
2023/04/29 07:21:58;;;;;;;5.53;3.78;;;;;;;11.34;59.58;101442.88;5012317;28;20037;-88
2023/04/29 07:24:25;;;;;;;4.90;3.50;;;;;;;11.41;59.58;101446.91;4995505;28;20033;-89
2023/04/29 07:26:50;;;;;;;5.65;3.28;;;;;;;11.42;58.93;101433.91;4979973;28;20352;-88
2023/04/29 07:29:16;;;;;;;6.75;3.13;;;;;;;11.45;58.72;101420.81;4995279;28;20026;-89
2023/04/29 07:31:41;;;;;;;4.55;3.20;;;;;;;11.63;58.75;101445.16;4995705;28;20500;-91
2023/04/29 07:34:07;;;;;;;3.67;3.00;;;;;;;11.69;58.76;101450.06;4994186;28;20431;-87
2023/04/29 07:36:32;;;;;;;7.70;3.38;;;;;;;11.85;58.29;101442.56;4994957;28;20081;-90
2023/04/29 07:38:58;;;;;;;4.60;3.65;;;;;;;11.81;58.29;101451.38;4979144;28;20034;-88
2023/04/29 07:41:23;;;;;;;4.68;3.45;;;;;;;11.90;58.03;101450.16;4996221;28;20419;-89
2023/04/29 07:43:49;;;;;;;4.97;2.92;;;;;;;11.98;57.91;101441.13;4996111;28;20052;-91
2023/04/29 07:46:17;;;;;;;5.45;3.67;;;;;;;11.89;58.03;101433.72;4995591;28;20022;-90
2023/04/29 07:48:42;;;;;;;4.35;2.95;;;;;;;11.93;59.09;101439.66;4995798;28;20034;-90
2023/04/29 07:51:12;;;;;;;4.50;3.15;;;;;;;11.91;56.95;101446.66;5011758;28;20405;-88
2023/04/29 07:53:38;;;;;;;9.77;4.15;;;;;;;11.91;57.53;101441.47;4995094;28;20025;-90
2023/04/29 07:56:07;;;;;;;6.72;3.88;;;;;;;12.05;57.65;101444.31;4995487;28;20415;-89
2023/04/29 07:58:33;;;;;;;5.70;3.70;;;;;;;12.09;57.33;101452.78;4995439;28;20030;-89
2023/04/29 08:01:08;;;;;;;5.63;3.42;;;;;;;11.90;57.70;101414.69;4995326;28;20041;-89
2023/04/29 08:03:33;;;;;;;4.63;3.03;;;;;;;12.13;57.51;101444.84;5011765;28;20026;-89
2023/04/29 08:06:02;;;;;;;5.35;3.72;;;;;;;11.97;57.76;101430.81;4994550;28;20534;-90
2023/04/29 08:08:29;;;;;;;4.55;3.65;;;;;;;12.07;58.56;101434.72;4994777;28;20033;-88
2023/04/29 08:10:55;;;;;;;7.68;3.08;;;;;;;12.24;57.72;101455.59;5011614;28;20030;-91
2023/04/29 08:13:20;;;;;;;6.68;3.78;;;;;;;12.06;57.78;101435.63;4994963;28;20033;-90
2023/04/29 08:15:45;;;;;;;5.88;4.00;;;;;;;12.27;57.69;101439.06;5011510;28;20030;-89
2023/04/29 08:18:11;;;;;;;3.97;3.22;;;;;;;12.28;57.52;101436.38;4978765;28;20423;-89
2023/04/29 08:20:36;;;;;;;5.45;3.72;;;;;;;12.36;56.73;101441.25;4995008;28;20129;-87
2023/04/29 08:23:02;;;;;;;6.38;3.97;;;;;;;12.20;57.75;101407.38;5010545;28;20041;-89
2023/04/29 08:25:29;;;;;;;8.32;4.03;;;;;;;12.57;57.45;101436.88;5011230;28;20033;-89
2023/04/29 08:27:54;;;;;;;6.60;3.55;;;;;;;12.72;56.27;101441.38;4994760;28;20030;-88
2023/04/29 08:30:20;;;;;;;5.78;3.63;;;;;;;12.74;55.78;101434.38;4994627;28;20087;-91
2023/04/29 08:32:45;;;;;;;2.90;2.42;;;;;;;12.86;56.19;101444.19;4994330;28;20058;-88
2023/04/29 08:35:11;;;;;;;5.45;4.43;;;;;;;12.76;55.20;101416.13;4978413;28;20098;-90
2023/04/29 08:37:37;;;;;;;7.38;3.55;;;;;;;12.91;55.33;101434.47;4994360;28;20419;-88
2023/04/29 08:40:03;;;;;;;5.50;3.70;;;;;;;12.87;55.09;101419.91;4994417;28;20107;-89
2023/04/29 08:42:33;;;;;;;3.58;3.05;;;;;;;12.99;54.65;101428.06;4994571;28;20021;-89
2023/04/29 08:45:00;;;;;;;4.30;2.92;;;;;;;12.95;54.34;101416.13;4994700;28;20034;-89
2023/04/29 08:47:29;;;;;;;6.82;3.63;;;;;;;12.84;54.77;101383.72;5010702;28;20038;-89
2023/04/29 08:49:55;;;;;;;4.50;3.47;;;;;;;13.19;54.73;101430.63;4994806;28;20026;-89
2023/04/29 08:52:20;;;;;;;5.50;4.10;;;;;;;13.02;54.28;101391.56;4993993;28;20393;-88
2023/04/29 08:54:45;;;;;;;5.15;3.60;;;;;;;13.32;54.71;101426.50;5010663;28;20100;-88
2023/04/29 08:57:12;;;;;;;5.05;3.60;;;;;;;13.27;54.67;101428.47;5011468;28;20037;-89
2023/04/29 08:59:37;;;;;;;6.47;3.58;;;;;;;12.97;54.91;101394.34;4994454;28;20033;-88
2023/04/29 09:02:03;;;;;;;4.82;3.75;;;;;;;13.11;53.88;101396.31;4994185;28;20407;-89
2023/04/29 09:05:06;;;;;;;5.47;3.50;;;;;;;13.17;54.02;101412.47;4994273;28;20026;-87
2023/04/29 09:07:32;;;;;;;5.70;3.97;;;;;;;13.31;54.50;101435.22;5010655;28;20049;-89
2023/04/29 09:09:57;;;;;;;6.40;4.35;;;;;;;13.42;54.96;101422.56;4994326;28;20388;-88
2023/04/29 09:12:23;;;;;;;11.30;4.03;;;;;;;13.41;54.35;101420.88;4994003;28;20033;-90
2023/04/29 09:15:32;;;;;;;5.38;3.75;;;;;;;13.41;54.56;101426.06;4994036;28;20033;-91
2023/04/29 09:21:21;;;;;;;5.45;4.22;;;;;;;13.31;54.81;101413.59;5015282;28;20053;-90
2023/04/29 09:23:47;;;;;;;5.00;3.85;;;;;;;13.37;55.00;101418.47;4998374;28;20034;-88
2023/04/29 09:26:13;;;;;;;4.78;3.60;;;;;;;13.38;54.56;101400.25;4998203;28;20479;-89
2023/04/29 09:28:42;;;;;;;8.65;3.53;;;;;;;13.38;54.83;101399.41;4997996;28;20037;-90
2023/04/29 09:31:07;;;;;;;4.97;3.72;;;;;;;13.34;55.20;101393.50;4982632;28;20034;-90
2023/04/29 09:34:06;;;;;;;4.47;3.47;;;;;;;13.47;55.05;101399.81;5013687;28;20057;-90
2023/04/29 09:36:47;;;;;;;5.32;3.42;;;;;;;13.29;54.29;101384.25;5002331;28;20030;-88
2023/04/29 09:39:16;;;;;;;6.07;4.47;;;;;;;13.22;54.52;101381.09;4982761;28;20029;-90
2023/04/29 09:41:51;;;;;;;8.30;4.25;;;;;;;13.39;54.29;101386.34;5013998;28;20034;-88
2023/04/29 09:44:16;;;;;;;5.43;3.85;;;;;;;13.42;54.15;101375.78;5015327;28;20069;-89
2023/04/29 09:46:42;;;;;;;9.55;4.90;;;;;;;13.55;54.26;101390.75;4997294;28;20030;-90
2023/04/29 09:49:27;;;;;;;6.10;4.20;;;;;;;13.64;54.62;101375.56;4980951;28;20045;-90
2023/04/29 09:51:57;;;;;;;4.78;3.17;;;;;;;13.74;53.57;101381.13;4997461;28;20039;-89
2023/04/29 09:54:29;;;;;;;5.03;3.72;;;;;;;13.74;53.83;101386.34;4997944;28;20034;-91
2023/04/29 09:56:55;;;;;;;;;;;;;;;13.79;54.09;101392.16;4998023;28;20068;-90
2023/04/29 09:59:21;;;;;;;4.45;3.15;;;;;;;13.65;54.63;101371.19;5013837;28;19918;-88
2023/04/29 10:01:54;;;;;;;5.70;3.67;;;;;;;13.70;54.07;101379.63;4997950;28;20034;-89
2023/04/29 10:04:21;;;;;;;9.32;3.97;;;;;;;13.83;54.57;101380.69;4997210;28;20083;-89
2023/04/29 10:06:51;;;;;;;5.60;4.18;;;;;;;13.44;54.74;101336.72;4981087;28;20070;-89
2023/04/29 10:09:17;;;;;;;6.95;5.40;;;;;;;13.87;54.38;101377.03;5013575;28;20018;-89
2023/04/29 10:11:47;;;;;;;6.00;3.78;;;;;;;13.86;53.83;101369.28;4997362;28;20034;-89
2023/04/29 10:14:20;;;;;;;12.13;4.45;;;;;;;13.89;53.70;101377.78;4997368;28;20026;-89
2023/04/29 10:17:15;;;;;;;7.88;4.07;;;;;;;13.95;53.86;101374.84;4997528;28;20030;-88
2023/04/29 10:19:50;;;;;;;6.35;4.18;;;;;;;14.04;53.95;101379.59;5013610;28;20053;-90
2023/04/29 10:22:28;;;;;;;6.22;4.13;;;;;;;14.02;53.81;101376.22;5014552;28;20105;-89
2023/04/29 10:24:54;;;;;;;8.32;4.40;;;;;;;14.09;54.02;101373.31;4997379;28;20022;-90
2023/04/29 10:27:20;;;;;;;7.15;4.40;;;;;;;14.11;53.32;101369.72;4996366;28;20037;-90
2023/04/29 10:29:45;;;;;;;4.65;3.38;;;;;;;14.17;52.41;101377.22;4995685;28;20037;-88
2023/04/29 10:32:11;;;;;;;5.05;3.67;;;;;;;14.16;52.18;101372.06;4996460;28;20033;-89
2023/04/29 10:34:38;;;;;;;5.30;3.40;;;;;;;14.18;52.02;101365.88;4996538;28;20049;-91
2023/04/29 10:37:05;;;;;;;6.80;3.63;;;;;;;14.10;51.54;101356.78;4980969;28;20415;-91
2023/04/29 10:40:04;;;;;;;6.13;3.47;;;;;;;14.10;52.00;101357.63;4996842;28;20120;-91
2023/04/29 10:42:30;;;;;;;5.32;3.55;;;;;;;14.22;52.18;101366.53;4997215;28;20042;-89
2023/04/29 10:45:17;;;;;;;6.22;4.25;;;;;;;14.22;52.33;101364.78;5013015;28;20065;-89
2023/04/29 10:48:05;;;;;;;6.25;4.28;;;;;;;14.05;51.62;101334.44;5012561;28;20403;-89
2023/04/29 10:50:45;;;;;;;6.32;4.53;;;;;;;14.09;52.21;101337.72;5014198;28;20030;-89
2023/04/29 10:53:11;;;;;;;5.18;3.88;;;;;;;14.10;52.26;101344.63;4998092;28;20068;-90
2023/04/29 10:55:37;;;;;;;4.45;3.40;;;;;;;14.12;52.39;101339.31;4996828;28;20026;-89
2023/04/29 10:58:03;;;;;;;6.43;3.58;;;;;;;14.16;52.01;101346.03;4996497;28;20124;-89
2023/04/29 11:00:30;;;;;;;9.70;3.85;;;;;;;14.14;51.46;101329.66;5012852;28;20026;-89
2023/04/29 11:03:04;;;;;;;5.05;3.42;;;;;;;14.24;50.40;101321.28;5012420;28;20033;-90
2023/04/29 11:05:30;;;;;;;7.07;4.13;;;;;;;14.36;50.84;101343.25;4980229;28;20037;-90
2023/04/29 11:08:22;;;;;;;7.18;4.25;;;;;;;14.39;51.43;101334.44;5012359;28;20406;-91
2023/04/29 11:10:54;;;;;;;5.50;3.30;;;;;;;14.30;50.88;101320.97;4997983;28;20117;-91
2023/04/29 11:13:27;;;;;;;5.43;4.22;;;;;;;14.54;51.11;101326.66;4996346;28;20053;-90
2023/04/29 11:16:02;;;;;;;6.10;3.95;;;;;;;14.58;50.68;101329.94;4995912;28;20034;-91
2023/04/29 11:18:28;;;;;;;4.63;3.40;;;;;;;14.59;51.51;101322.03;4996111;28;20080;-88
2023/04/29 11:21:05;;;;;;;8.07;3.83;;;;;;;14.65;50.78;101323.50;4995968;28;20034;-90
2023/04/29 11:23:35;;;;;;;4.68;3.38;;;;;;;14.73;50.27;101320.44;5011976;28;20030;-90
2023/04/29 11:26:00;;;;;;;4.07;3.30;;;;;;;14.82;50.15;101306.91;5011713;28;20476;-91
2023/04/29 11:28:30;;;;;;;5.65;4.25;;;;;;;14.95;51.71;101307.91;4995573;28;20034;-90
2023/04/29 11:30:56;;;;;;;6.18;3.83;;;;;;;14.97;49.68;101295.63;4979170;28;20085;-90
2023/04/29 11:33:26;;;;;;;4.88;3.00;;;;;;;15.10;48.88;101309.63;5011593;28;20054;-89